Time;durP1;ratioP1;P1;durP2;ratioP2;P2;SDS_P1;SDS_P2;PMS_P1;PMS_P2;Temp;Humidity;BMP_temperature;BMP_pressure;BME280_temperature;BME280_humidity;BME280_pressure;Samples;Min_cycle;Max_cycle;Signal;HPM_P1;HPM_P2
2021/10/07 00:01:21;;;;;;;4.80;2.10;;;11.90;84.80;;;;;;4999946;28;20044;-84
2021/10/07 00:03:47;;;;;;;3.47;2.17;;;11.90;84.90;;;;;;5008368;28;20426;-84
2021/10/07 00:06:12;;;;;;;7.85;2.10;;;11.90;84.80;;;;;;5004157;28;20022;-84
2021/10/07 00:08:38;;;;;;;12.30;1.80;;;11.90;84.80;;;;;;5004825;28;20026;-83
2021/10/07 00:11:03;;;;;;;14.80;1.60;;;11.90;85.00;;;;;;5017150;28;20040;-84
2021/10/07 00:13:29;;;;;;;10.98;1.58;;;11.90;85.00;;;;;;5008087;28;20028;-84
2021/10/07 00:15:55;;;;;;;3.00;1.50;;;12.00;85.00;;;;;;4999728;28;20083;-84
2021/10/07 00:18:21;;;;;;;7.55;1.25;;;12.00;85.00;;;;;;5018978;28;20042;-84
2021/10/07 00:20:47;;;;;;;8.93;1.50;;;12.00;84.90;;;;;;5029134;28;20053;-83
2021/10/07 00:23:15;;;;;;;9.02;1.70;;;12.10;84.90;;;;;;5019000;28;20030;-83
2021/10/07 00:25:41;;;;;;;5.55;1.48;;;12.10;84.80;;;;;;5008971;28;20022;-84
2021/10/07 00:28:09;;;;;;;4.57;1.33;;;12.10;84.70;;;;;;5010526;28;20108;-83
2021/10/07 00:30:37;;;;;;;7.85;1.60;;;12.10;84.60;;;;;;5010434;28;20026;-82
2021/10/07 00:40:56;;;;;;;3.35;1.50;;;12.20;84.70;;;;;;5072505;28;20412;-84
2021/10/07 00:43:21;;;;;;;3.13;1.52;;;12.20;84.60;;;;;;5077203;28;20036;-82
2021/10/07 00:46:00;;;;;;;7.30;1.50;;;12.20;84.70;;;;;;5021395;28;20041;-84
2021/10/07 00:48:25;;;;;;;5.20;1.42;;;12.20;84.70;;;;;;5010342;28;20028;-83
2021/10/07 00:50:51;;;;;;;8.98;1.35;;;12.20;84.80;;;;;;5010275;28;20030;-83
2021/10/07 00:53:18;;;;;;;13.20;1.60;;;12.20;84.90;;;;;;5010371;28;20065;-83
2021/10/07 00:55:44;;;;;;;25.23;1.80;;;12.20;85.00;;;;;;5009800;28;20391;-82
2021/10/07 00:58:10;;;;;;;9.02;1.38;;;12.20;85.10;;;;;;5009934;28;20018;-81
2021/10/07 01:00:36;;;;;;;16.38;1.40;;;12.20;85.10;;;;;;5010028;28;20113;-81
2021/10/07 01:03:02;;;;;;;7.60;1.30;;;12.30;85.10;;;;;;5008900;28;20034;-81
2021/10/07 01:05:28;;;;;;;9.48;1.35;;;12.30;85.00;;;;;;5009865;28;20034;-82
2021/10/07 01:07:56;;;;;;;17.70;1.50;;;12.30;85.10;;;;;;5009366;28;20094;-81
2021/10/07 01:10:22;;;;;;;13.52;1.40;;;12.30;85.00;;;;;;5010200;28;20502;-82
2021/10/07 01:12:47;;;;;;;15.82;1.25;;;12.30;84.80;;;;;;5010016;28;20061;-82
2021/10/07 01:15:13;;;;;;;21.27;1.40;;;12.30;84.70;;;;;;5010257;28;20029;-82
2021/10/07 01:17:38;;;;;;;12.75;1.42;;;12.30;84.70;;;;;;5009849;28;20383;-83
2021/10/07 01:20:06;;;;;;;4.47;1.20;;;12.30;84.60;;;;;;5009638;28;20034;-83
2021/10/07 01:22:33;;;;;;;7.22;1.20;;;12.40;84.70;;;;;;5009761;28;20018;-82
2021/10/07 01:25:00;;;;;;;8.02;1.30;;;12.30;84.70;;;;;;5009939;28;20025;-83
2021/10/07 01:27:28;;;;;;;6.10;1.20;;;12.30;84.70;;;;;;5009876;28;20161;-82
2021/10/07 01:29:56;;;;;;;9.50;1.35;;;12.30;85.30;;;;;;5009203;28;20037;-81
2021/10/07 01:32:22;;;;;;;7.85;1.35;;;12.30;84.70;;;;;;5009590;28;20468;-81
2021/10/07 01:34:48;;;;;;;5.30;1.38;;;12.30;84.60;;;;;;5009554;28;20112;-80
2021/10/07 01:37:14;;;;;;;2.00;1.15;;;12.30;84.70;;;;;;5009697;28;20116;-80
2021/10/07 01:39:39;;;;;;;3.47;1.23;;;12.30;84.60;;;;;;5009438;28;20460;-79
2021/10/07 01:42:05;;;;;;;3.67;1.27;;;12.30;84.60;;;;;;5009813;28;20121;-78
2021/10/07 01:44:31;;;;;;;3.17;1.20;;;12.20;84.60;;;;;;5009148;28;20017;-77
2021/10/07 01:46:56;;;;;;;1.23;1.13;;;12.20;84.60;;;;;;5009105;28;20468;-78
2021/10/07 01:49:22;;;;;;;2.03;1.20;;;12.20;84.60;;;;;;5009970;28;20468;-79
2021/10/07 01:51:48;;;;;;;2.88;1.25;;;12.10;84.60;;;;;;5009359;28;20026;-79
2021/10/07 01:54:14;;;;;;;4.90;1.40;;;12.10;84.60;;;;;;5009411;28;20056;-79
2021/10/07 01:56:40;;;;;;;6.93;1.10;;;12.00;84.80;;;;;;5009781;28;20077;-79
2021/10/07 01:59:05;;;;;;;10.18;1.20;;;12.00;85.00;;;;;;5009035;28;20034;-79
2021/10/07 02:01:32;;;;;;;14.95;1.40;;;12.00;85.00;;;;;;5008885;28;20030;-79
2021/10/07 02:03:58;;;;;;;9.05;1.23;;;12.00;84.90;;;;;;5009383;28;20026;-78
2021/10/07 02:06:23;;;;;;;9.80;1.30;;;12.00;85.00;;;;;;5009328;28;20026;-79
2021/10/07 02:08:49;;;;;;;12.90;1.17;;;12.00;84.90;;;;;;5008901;28;20029;-79
2021/10/07 02:11:14;;;;;;;10.18;1.00;;;12.00;84.80;;;;;;5007733;28;20036;-78
2021/10/07 02:13:40;;;;;;;6.03;1.13;;;11.90;84.80;;;;;;5008554;28;20022;-79
2021/10/07 02:16:06;;;;;;;4.03;1.20;;;11.90;84.80;;;;;;5009017;28;20040;-79
2021/10/07 02:18:31;;;;;;;4.15;1.10;;;11.90;84.80;;;;;;5009041;28;20075;-81
2021/10/07 02:20:57;;;;;;;1.80;1.10;;;11.80;84.80;;;;;;5008927;28;20056;-81
2021/10/07 02:23:23;;;;;;;1.20;1.05;;;11.80;84.80;;;;;;5008989;28;20034;-79
2021/10/07 02:25:49;;;;;;;1.02;1.02;;;11.70;84.80;;;;;;5007911;28;20124;-81
2021/10/07 02:28:14;;;;;;;1.63;1.15;;;11.70;84.90;;;;;;5008792;28;20073;-80
2021/10/07 02:30:41;;;;;;;1.65;1.10;;;11.60;84.90;;;;;;5008782;28;20495;-81
2021/10/07 02:33:07;;;;;;;4.72;1.23;;;11.60;85.10;;;;;;5008817;28;20613;-81
2021/10/07 02:35:32;;;;;;;1.40;1.30;;;11.60;85.10;;;;;;5008870;28;20121;-81
2021/10/07 02:37:58;;;;;;;4.57;1.40;;;11.50;85.00;;;;;;5008793;28;20107;-81
2021/10/07 02:40:24;;;;;;;3.38;1.27;;;11.50;84.90;;;;;;5008667;28;20407;-80
2021/10/07 02:42:49;;;;;;;3.85;1.40;;;11.50;84.90;;;;;;5007398;28;20057;-81
2021/10/07 02:45:16;;;;;;;4.10;1.52;;;11.50;85.00;;;;;;5006910;28;20034;-81
2021/10/07 02:47:42;;;;;;;4.68;1.45;;;11.40;85.00;;;;;;5034949;28;20484;-80
2021/10/07 02:50:09;;;;;;;1.63;1.38;;;11.30;85.10;;;;;;5057014;28;20034;-81
2021/10/07 02:52:36;;;;;;;3.33;1.60;;;11.30;85.30;;;;;;5041515;28;20047;-81
2021/10/07 02:55:01;;;;;;;1.70;1.50;;;11.30;85.30;;;;;;5022522;28;20037;-81
2021/10/07 02:57:27;;;;;;;4.22;1.52;;;11.30;85.20;;;;;;5040760;28;20042;-80
2021/10/07 02:59:52;;;;;;;1.42;1.33;;;11.30;85.20;;;;;;5023303;28;20112;-81
2021/10/07 03:02:18;;;;;;;2.80;1.40;;;11.30;85.10;;;;;;5014499;28;20096;-81
2021/10/07 03:04:43;;;;;;;2.50;1.35;;;11.20;84.90;;;;;;5048681;28;20442;-80
2021/10/07 03:07:12;;;;;;;4.20;1.48;;;11.20;85.10;;;;;;5069112;28;20478;-82
2021/10/07 03:09:40;;;;;;;7.30;1.38;;;11.20;85.10;;;;;;5016830;28;20490;-81
2021/10/07 03:12:06;;;;;;;1.55;1.40;;;11.20;85.00;;;;;;5036650;28;20032;-78
2021/10/07 03:14:33;;;;;;;4.70;1.60;;;11.20;84.90;;;;;;5041679;28;20113;-79
2021/10/07 03:16:58;;;;;;;7.70;1.65;;;11.20;84.80;;;;;;5007596;28;20034;-78
2021/10/07 03:19:25;;;;;;;2.55;1.40;;;11.10;85.00;;;;;;5006922;28;20041;-79
2021/10/07 03:21:51;;;;;;;1.73;1.48;;;11.00;85.20;;;;;;5008151;28;20427;-79
2021/10/07 03:24:17;;;;;;;1.60;1.50;;;11.00;85.30;;;;;;5008053;28;20067;-78
2021/10/07 03:26:42;;;;;;;1.58;1.48;;;11.00;85.20;;;;;;5008257;28;20025;-79
2021/10/07 03:29:08;;;;;;;3.05;1.70;;;11.00;85.10;;;;;;5007685;28;20069;-79
2021/10/07 03:31:33;;;;;;;2.47;1.55;;;10.90;85.00;;;;;;5008498;28;20027;-79
2021/10/07 03:33:59;;;;;;;2.03;1.70;;;10.90;85.10;;;;;;5008446;28;20041;-80
2021/10/07 03:36:25;;;;;;;2.20;1.50;;;10.90;85.20;;;;;;5008271;28;20030;-80
2021/10/07 03:38:50;;;;;;;1.70;1.60;;;10.90;85.10;;;;;;5007761;28;20022;-79
2021/10/07 03:41:16;;;;;;;1.48;1.35;;;10.80;84.90;;;;;;5008279;28;20470;-80
2021/10/07 03:43:42;;;;;;;2.83;1.67;;;10.80;84.70;;;;;;5007650;28;20057;-80
2021/10/07 03:46:07;;;;;;;1.58;1.48;;;10.70;84.80;;;;;;5007769;28;20030;-79
2021/10/07 03:48:33;;;;;;;2.25;1.60;;;10.70;85.10;;;;;;5007815;28;20075;-78
2021/10/07 03:50:58;;;;;;;1.75;1.60;;;10.70;85.00;;;;;;5007506;28;20041;-79
2021/10/07 03:53:26;;;;;;;1.77;1.67;;;10.70;85.00;;;;;;5009141;28;20026;-79
2021/10/07 03:55:52;;;;;;;1.70;1.60;;;10.70;84.90;;;;;;5011261;28;20030;-79
2021/10/07 03:58:17;;;;;;;2.63;1.55;;;10.70;84.80;;;;;;5010989;28;20040;-79
2021/10/07 04:00:43;;;;;;;5.97;1.88;;;10.70;84.60;;;;;;5011121;28;20112;-79
2021/10/07 04:03:08;;;;;;;2.35;1.60;;;10.60;84.60;;;;;;5011189;28;20034;-79
2021/10/07 04:05:34;;;;;;;2.35;1.65;;;10.60;84.60;;;;;;5011582;28;20037;-79
2021/10/07 04:08:00;;;;;;;2.60;1.70;;;10.60;84.70;;;;;;5010326;28;20508;-79
2021/10/07 04:10:25;;;;;;;5.28;1.63;;;10.60;84.70;;;;;;5011501;28;20082;-79
2021/10/07 04:12:51;;;;;;;3.55;2.00;;;10.60;84.60;;;;;;5010910;28;20044;-79
2021/10/07 04:15:16;;;;;;;1.90;1.70;;;10.60;84.50;;;;;;5011304;28;20046;-79
2021/10/07 04:17:42;;;;;;;1.88;1.60;;;10.50;84.40;;;;;;5010597;28;20449;-79
2021/10/07 04:20:08;;;;;;;2.65;1.55;;;10.50;84.50;;;;;;5010746;28;20025;-79
2021/10/07 04:22:33;;;;;;;1.77;1.67;;;10.40;84.60;;;;;;5010914;28;20123;-79
2021/10/07 04:24:59;;;;;;;3.97;1.80;;;10.40;84.80;;;;;;5010307;28;20474;-78
2021/10/07 04:27:24;;;;;;;4.60;2.15;;;10.40;84.80;;;;;;5010362;28;20431;-80
2021/10/07 04:29:50;;;;;;;7.28;2.00;;;10.40;84.70;;;;;;5010303;28;20038;-79
2021/10/07 04:32:16;;;;;;;6.10;2.20;;;10.40;84.80;;;;;;5010355;28;20033;-80
2021/10/07 04:34:41;;;;;;;2.75;1.88;;;10.30;84.80;;;;;;5010479;28;20033;-79
2021/10/07 04:37:07;;;;;;;5.18;1.73;;;10.30;85.10;;;;;;5010157;28;20061;-79
2021/10/07 04:39:32;;;;;;;2.95;1.70;;;10.30;85.00;;;;;;5010291;28;20464;-80
2021/10/07 04:41:58;;;;;;;3.17;1.80;;;10.30;85.00;;;;;;5010278;28;20098;-79
2021/10/07 04:44:24;;;;;;;5.25;1.90;;;10.30;85.20;;;;;;5010077;28;20029;-79
2021/10/07 04:46:49;;;;;;;2.58;1.75;;;10.30;85.10;;;;;;5010195;28;20026;-79
2021/10/07 04:49:15;;;;;;;3.22;1.80;;;10.30;84.90;;;;;;5010269;28;20026;-79
2021/10/07 04:51:40;;;;;;;5.43;1.75;;;10.40;84.90;;;;;;5010123;28;20029;-79
2021/10/07 04:54:06;;;;;;;4.85;1.77;;;10.40;84.70;;;;;;5010214;28;20377;-81
2021/10/07 04:56:31;;;;;;;4.65;1.60;;;10.30;84.50;;;;;;5009975;28;20041;-80
2021/10/07 04:58:57;;;;;;;3.08;1.83;;;10.30;84.40;;;;;;5008095;28;20105;-80
2021/10/07 05:01:23;;;;;;;3.67;1.65;;;10.30;84.40;;;;;;5010245;28;20460;-79
2021/10/07 05:03:49;;;;;;;1.88;1.60;;;10.30;84.40;;;;;;4998361;28;20034;-83
2021/10/07 05:06:14;;;;;;;1.73;1.63;;;10.30;84.30;;;;;;5008941;28;20018;-83
2021/10/07 05:08:40;;;;;;;1.50;1.40;;;10.20;84.20;;;;;;5009502;28;20037;-83
2021/10/07 05:11:06;;;;;;;1.65;1.52;;;10.20;84.30;;;;;;5009817;28;20022;-82
2021/10/07 05:13:32;;;;;;;1.70;1.60;;;10.20;84.30;;;;;;5009896;28;20022;-84
2021/10/07 05:15:58;;;;;;;1.63;1.52;;;10.10;84.20;;;;;;5009024;28;20063;-82
2021/10/07 05:18:23;;;;;;;1.60;1.50;;;10.10;84.50;;;;;;5030145;28;20034;-81
2021/10/07 05:20:50;;;;;;;1.67;1.58;;;10.10;84.60;;;;;;5026751;28;20129;-81
2021/10/07 05:23:16;;;;;;;1.60;1.50;;;10.00;84.50;;;;;;5052761;28;20105;-81
2021/10/07 05:25:41;;;;;;;1.35;1.25;;;10.00;84.50;;;;;;5057223;28;20064;-81
2021/10/07 05:28:07;;;;;;;1.42;1.33;;;10.00;84.60;;;;;;5046380;28;20027;-81
2021/10/07 05:30:32;;;;;;;1.55;1.45;;;10.00;84.60;;;;;;5023595;27;20103;-82
2021/10/07 05:32:58;;;;;;;1.60;1.50;;;10.00;84.50;;;;;;5050861;28;20052;-83
2021/10/07 05:35:23;;;;;;;1.65;1.42;;;10.00;84.40;;;;;;5041697;28;20024;-83
2021/10/07 05:37:49;;;;;;;2.15;1.50;;;10.00;84.30;;;;;;5045324;28;20046;-82
2021/10/07 05:40:14;;;;;;;1.50;1.40;;;10.00;84.30;;;;;;5013604;28;20078;-83
2021/10/07 05:42:40;;;;;;;1.38;1.27;;;10.00;84.30;;;;;;5011406;28;20079;-84
2021/10/07 05:45:10;;;;;;;2.40;1.45;;;9.90;84.20;;;;;;5024484;28;20022;-83
2021/10/07 05:47:39;;;;;;;1.40;1.30;;;9.90;84.30;;;;;;5003487;28;20064;-83
2021/10/07 05:50:08;;;;;;;1.60;1.50;;;9.90;84.30;;;;;;5008622;28;20430;-82
2021/10/07 05:52:33;;;;;;;1.60;1.45;;;9.80;84.30;;;;;;5006559;28;20036;-82
2021/10/07 05:54:59;;;;;;;1.50;1.40;;;9.80;84.30;;;;;;5008191;28;20101;-83
2021/10/07 05:57:25;;;;;;;2.33;1.40;;;9.80;84.30;;;;;;5012648;28;20076;-83
2021/10/07 05:59:52;;;;;;;1.70;1.60;;;9.80;84.20;;;;;;5012690;28;20672;-83
2021/10/07 06:02:18;;;;;;;1.58;1.48;;;9.80;84.10;;;;;;5106804;27;20053;-83
2021/10/07 06:04:43;;;;;;;1.50;1.40;;;9.80;84.10;;;;;;5006243;28;20114;-82
2021/10/07 06:07:09;;;;;;;1.73;1.55;;;9.80;84.20;;;;;;5002765;28;20116;-83
2021/10/07 06:09:35;;;;;;;2.17;1.45;;;9.80;84.20;;;;;;5006639;28;20379;-82
2021/10/07 06:12:00;;;;;;;1.92;1.73;;;9.80;84.10;;;;;;5005692;28;20071;-82
2021/10/07 06:14:26;;;;;;;1.63;1.52;;;9.80;84.10;;;;;;5004259;28;20416;-82
2021/10/07 06:16:53;;;;;;;2.00;1.60;;;9.80;84.10;;;;;;5005297;28;20034;-82
2021/10/07 06:19:21;;;;;;;2.25;1.60;;;9.70;84.20;;;;;;5003906;28;20109;-82
2021/10/07 06:21:48;;;;;;;2.00;1.80;;;9.80;84.40;;;;;;5006162;28;20083;-81
2021/10/07 06:24:14;;;;;;;1.60;1.50;;;9.80;84.30;;;;;;5003111;28;20014;-80
2021/10/07 06:26:40;;;;;;;2.13;1.80;;;9.80;84.20;;;;;;5001916;28;20022;-80
2021/10/07 06:29:06;;;;;;;1.63;1.52;;;9.90;84.20;;;;;;5001925;28;20053;-80
2021/10/07 06:31:32;;;;;;;1.95;1.08;;;9.90;84.20;;;;;;5006674;28;20060;-81
2021/10/07 06:33:57;;;;;;;2.45;1.90;;;9.90;84.10;;;;;;5007853;28;20034;-81
2021/10/07 06:36:23;;;;;;;2.03;1.83;;;9.90;84.40;;;;;;5006239;28;20037;-80
2021/10/07 06:38:48;;;;;;;2.08;1.85;;;9.90;84.40;;;;;;5006097;28;20026;-81
2021/10/07 06:41:14;;;;;;;1.80;1.70;;;10.00;84.40;;;;;;5006135;28;20025;-79
2021/10/07 06:43:40;;;;;;;2.22;1.83;;;10.10;84.40;;;;;;5006629;28;20037;-82
2021/10/07 06:46:05;;;;;;;2.20;1.90;;;10.20;84.30;;;;;;5006570;28;20398;-79
2021/10/07 06:48:33;;;;;;;2.58;1.60;;;10.30;84.10;;;;;;5011053;28;20613;-77
2021/10/07 06:50:59;;;;;;;2.08;1.63;;;10.30;83.90;;;;;;5008070;28;20026;-77
2021/10/07 06:53:24;;;;;;;2.00;1.63;;;10.40;83.80;;;;;;5006014;28;20037;-77
2021/10/07 06:55:50;;;;;;;2.63;1.60;;;10.40;83.60;;;;;;5006373;28;20111;-76
2021/10/07 06:58:18;;;;;;;2.00;1.70;;;10.50;83.60;;;;;;5007536;28;20054;-79
2021/10/07 07:00:44;;;;;;;1.60;1.48;;;10.60;83.60;;;;;;5006086;28;20018;-79
2021/10/07 07:03:10;;;;;;;2.63;1.60;;;10.70;83.60;;;;;;5005730;28;20026;-78
2021/10/07 07:05:36;;;;;;;1.70;1.60;;;10.70;83.40;;;;;;5003156;28;20026;-78
2021/10/07 07:08:03;;;;;;;1.60;1.50;;;10.80;83.30;;;;;;5001536;28;20034;-76
2021/10/07 07:10:28;;;;;;;1.63;1.50;;;10.80;83.20;;;;;;4999694;28;20033;-75
2021/10/07 07:12:54;;;;;;;2.25;2.00;;;10.90;83.20;;;;;;5009374;28;20041;-77
2021/10/07 07:15:20;;;;;;;2.70;2.30;;;11.00;83.10;;;;;;5002963;28;20040;-78
2021/10/07 07:17:46;;;;;;;1.67;1.58;;;10.90;83.20;;;;;;5005170;28;20129;-79
2021/10/07 07:20:12;;;;;;;1.73;1.63;;;10.90;83.30;;;;;;5003982;28;20164;-79
2021/10/07 07:22:38;;;;;;;1.38;1.27;;;10.90;83.50;;;;;;5005919;28;20108;-78
2021/10/07 07:25:06;;;;;;;1.58;1.48;;;11.00;83.50;;;;;;5007000;28;20113;-76
2021/10/07 07:27:32;;;;;;;1.63;1.45;;;11.00;83.40;;;;;;5000674;28;20030;-77
2021/10/07 07:29:57;;;;;;;2.67;1.75;;;11.10;83.40;;;;;;5004616;28;20026;-79
2021/10/07 07:32:23;;;;;;;2.42;1.95;;;11.20;83.30;;;;;;5005477;28;20053;-78
2021/10/07 07:34:49;;;;;;;3.47;2.53;;;11.20;83.20;;;;;;5004437;28;20040;-76
2021/10/07 07:37:14;;;;;;;2.95;2.63;;;11.20;83.30;;;;;;5007819;28;20567;-80
2021/10/07 07:39:40;;;;;;;2.35;2.00;;;11.10;83.50;;;;;;5004565;28;20025;-76
2021/10/07 07:42:06;;;;;;;2.47;2.28;;;11.10;83.70;;;;;;5025970;28;20045;-76
2021/10/07 07:44:31;;;;;;;2.40;2.15;;;11.10;83.80;;;;;;5026661;28;20454;-77
2021/10/07 07:46:57;;;;;;;3.22;2.33;;;11.10;83.90;;;;;;5019987;28;20035;-78
2021/10/07 07:49:23;;;;;;;2.53;2.30;;;11.20;83.90;;;;;;5032010;28;20018;-78
2021/10/07 07:51:50;;;;;;;2.78;2.47;;;11.20;84.00;;;;;;5010273;28;20033;-79
2021/10/07 07:54:15;;;;;;;2.92;2.60;;;11.30;84.10;;;;;;5025835;28;20030;-78
2021/10/07 07:56:41;;;;;;;3.15;2.80;;;11.30;84.10;;;;;;5025329;28;20529;-77
2021/10/07 07:59:08;;;;;;;3.08;2.78;;;11.30;84.20;;;;;;5012732;28;20388;-79
2021/10/07 08:01:36;;;;;;;4.65;4.15;;;11.40;84.20;;;;;;5009162;28;20026;-80
2021/10/07 08:04:03;;;;;;;4.38;3.45;;;11.40;84.50;;;;;;5026565;28;20047;-80
2021/10/07 08:06:28;;;;;;;5.80;4.20;;;11.30;84.50;;;;;;5011438;28;20033;-78
2021/10/07 08:08:54;;;;;;;3.70;3.30;;;11.30;84.70;;;;;;5028978;28;20034;-78
2021/10/07 08:11:20;;;;;;;3.20;2.90;;;11.40;85.00;;;;;;5027659;28;20033;-80
2021/10/07 08:13:45;;;;;;;2.70;2.40;;;11.40;84.90;;;;;;5013872;28;20334;-79
2021/10/07 08:16:11;;;;;;;2.50;2.30;;;11.50;84.90;;;;;;5036530;28;20049;-76
2021/10/07 08:18:36;;;;;;;2.47;2.28;;;11.60;84.80;;;;;;5009078;28;20022;-78
2021/10/07 08:21:02;;;;;;;5.15;3.90;;;11.80;84.60;;;;;;5051679;28;20035;-78
2021/10/07 08:23:29;;;;;;;14.65;5.00;;;11.80;84.40;;;;;;5046374;28;20029;-77
2021/10/07 08:25:55;;;;;;;10.43;3.90;;;11.80;84.30;;;;;;5008167;28;20022;-77
2021/10/07 08:28:22;;;;;;;3.90;3.38;;;11.80;84.40;;;;;;5029876;28;20075;-78
2021/10/07 08:30:48;;;;;;;10.85;3.55;;;11.90;84.30;;;;;;5030717;28;20157;-77
2021/10/07 08:33:14;;;;;;;12.15;4.07;;;12.00;84.10;;;;;;5009224;28;20454;-78
2021/10/07 08:35:39;;;;;;;29.98;3.90;;;12.00;84.10;;;;;;5035198;28;20024;-81
2021/10/07 08:38:05;;;;;;;21.15;4.65;;;12.00;84.10;;;;;;5025162;28;20082;-81
2021/10/07 08:40:31;;;;;;;10.45;4.20;;;12.00;84.10;;;;;;5031691;28;20027;-81
2021/10/07 08:42:57;;;;;;;27.55;3.85;;;12.10;84.30;;;;;;5056922;28;20108;-77
2021/10/07 08:45:22;;;;;;;4.68;3.95;;;12.20;84.30;;;;;;5030617;28;20088;-79
2021/10/07 08:47:51;;;;;;;6.53;3.10;;;12.30;84.10;;;;;;5025225;28;20026;-79
2021/10/07 08:50:19;;;;;;;6.85;3.60;;;12.40;84.00;;;;;;5026093;28;20062;-77
2021/10/07 08:52:45;;;;;;;15.20;4.00;;;12.50;83.80;;;;;;5067378;28;20016;-80
2021/10/07 08:55:11;;;;;;;18.00;4.25;;;12.60;83.80;;;;;;5013596;28;20357;-77
2021/10/07 08:57:38;;;;;;;14.13;4.22;;;12.50;83.80;;;;;;5019504;28;20098;-76
2021/10/07 09:00:06;;;;;;;17.60;4.10;;;12.60;84.00;;;;;;5031977;28;20551;-79
2021/10/07 09:02:33;;;;;;;30.63;4.13;;;12.50;84.00;;;;;;5007037;28;20030;-80
2021/10/07 09:05:15;;;;;;;6.75;3.28;;;12.60;84.10;;;;;;5018582;28;20100;-78
2021/10/07 09:07:55;;;;;;;9.82;2.90;;;12.60;84.10;;;;;;5008445;28;20030;-82
2021/10/07 09:10:45;;;;;;;5.68;3.22;;;12.60;84.10;;;;;;5009757;28;20041;-80
2021/10/07 09:13:21;;;;;;;6.65;3.17;;;12.70;84.00;;;;;;5008913;28;20034;-81
2021/10/07 09:15:59;;;;;;;4.50;3.55;;;12.80;84.00;;;;;;5008078;28;20021;-78
2021/10/07 09:18:27;;;;;;;4.88;3.15;;;12.90;83.90;;;;;;5008944;28;20022;-79
2021/10/07 09:20:54;;;;;;;4.22;3.45;;;13.00;83.90;;;;;;5010207;28;20029;-81
2021/10/07 09:23:29;;;;;;;13.05;4.85;;;13.00;83.90;;;;;;5007712;28;20121;-82
2021/10/07 09:26:05;;;;;;;6.88;4.05;;;13.00;84.10;;;;;;5007210;28;20041;-79
2021/10/07 09:28:58;;;;;;;14.52;5.05;;;13.10;84.10;;;;;;5009547;28;20065;-79
2021/10/07 09:31:30;;;;;;;6.57;4.15;;;13.00;84.10;;;;;;5010266;28;20383;-80
2021/10/07 09:33:58;;;;;;;8.15;4.10;;;13.10;84.30;;;;;;5010279;28;20116;-80
2021/10/07 09:36:24;;;;;;;3.45;2.75;;;13.10;84.20;;;;;;5009552;28;20134;-80
2021/10/07 09:38:52;;;;;;;3.70;2.97;;;13.20;84.20;;;;;;5005780;28;20551;-81
2021/10/07 09:41:26;;;;;;;6.13;4.78;;;13.30;84.10;;;;;;5023330;28;20027;-81
2021/10/07 09:43:53;;;;;;;12.73;6.40;;;13.30;84.00;;;;;;5008787;28;20037;-80
2021/10/07 09:46:41;;;;;;;7.63;5.47;;;13.30;84.10;;;;;;5006967;28;20049;-81
2021/10/07 09:49:10;;;;;;;6.43;3.80;;;13.30;84.20;;;;;;5024136;28;20040;-81
2021/10/07 09:51:43;;;;;;;8.23;6.00;;;13.40;84.10;;;;;;5023285;28;20055;-79
2021/10/07 09:54:09;;;;;;;10.32;6.70;;;13.40;84.30;;;;;;5032977;28;20029;-81
2021/10/07 09:56:35;;;;;;;13.10;8.82;;;13.40;84.30;;;;;;5046322;27;20119;-81
2021/10/07 09:59:07;;;;;;;12.20;8.88;;;13.40;84.30;;;;;;5027102;28;20117;-81
2021/10/07 10:01:33;;;;;;;9.63;6.80;;;13.40;84.50;;;;;;5029685;28;20365;-82
2021/10/07 10:03:59;;;;;;;9.05;6.25;;;13.30;84.80;;;;;;5021279;28;20041;-81
2021/10/07 10:06:24;;;;;;;23.10;10.98;;;13.20;85.10;;;;;;5026706;28;20026;-81
2021/10/07 10:08:50;;;;;;;13.68;8.98;;;13.30;85.20;;;;;;5007487;28;20400;-81
2021/10/07 10:11:19;;;;;;;14.80;9.18;;;13.40;85.30;;;;;;5017119;28;20034;-81
2021/10/07 10:13:47;;;;;;;13.80;8.98;;;13.40;85.20;;;;;;5009100;28;20075;-80
2021/10/07 10:16:15;;;;;;;11.73;7.70;;;13.40;85.20;;;;;;5021620;28;20053;-81
2021/10/07 10:18:41;;;;;;;15.27;9.52;;;13.40;85.10;;;;;;5007481;28;20532;-82
2021/10/07 10:21:08;;;;;;;11.93;7.20;;;13.50;85.10;;;;;;5004568;28;20044;-81
2021/10/07 10:23:38;;;;;;;14.13;8.95;;;13.50;85.20;;;;;;5002444;28;20026;-81
2021/10/07 10:26:10;;;;;;;19.65;11.98;;;13.70;85.20;;;;;;5007481;28;20106;-81
2021/10/07 10:28:39;;;;;;;17.88;11.00;;;13.60;85.40;;;;;;5006656;28;20026;-81
2021/10/07 10:31:07;;;;;;;14.68;9.27;;;13.60;86.30;;;;;;5007985;28;20030;-81
2021/10/07 10:33:35;;;;;;;21.02;10.65;;;13.70;85.50;;;;;;5008660;28;20034;-79
2021/10/07 10:36:21;;;;;;;18.85;11.65;;;13.70;85.30;;;;;;5008530;28;20060;-78
2021/10/07 10:39:01;;;;;;;27.75;17.70;;;13.70;85.10;;;;;;5098227;27;20441;-79
2021/10/07 10:41:47;;;;;;;17.88;11.38;;;13.80;85.00;;;;;;5007963;28;20082;-80
2021/10/07 10:44:27;;;;;;;14.43;9.27;;;13.90;85.00;;;;;;5007629;28;20026;-79
2021/10/07 10:47:05;;;;;;;10.88;7.15;;;13.90;84.60;;;;;;5008127;28;20045;-79
2021/10/07 10:49:40;;;;;;;12.65;7.80;;;14.00;84.40;;;;;;5008011;28;20028;-77
2021/10/07 10:52:16;;;;;;;17.90;11.52;;;14.00;84.30;;;;;;5007162;28;20026;-80
2021/10/07 10:54:46;;;;;;;16.85;10.98;;;14.00;84.20;;;;;;5006983;28;20032;-79
2021/10/07 10:57:28;;;;;;;18.20;11.48;;;14.00;84.50;;;;;;5007678;28;20033;-78
2021/10/07 11:00:14;;;;;;;9.55;5.97;;;14.00;84.40;;;;;;5007067;28;20034;-78
2021/10/07 11:02:44;;;;;;;17.02;10.98;;;14.10;84.30;;;;;;5005285;28;20030;-78
2021/10/07 11:05:17;;;;;;;19.35;12.73;;;14.10;84.00;;;;;;5016621;28;20022;-78
2021/10/07 11:07:43;;;;;;;26.50;18.00;;;14.10;83.90;;;;;;5030571;28;20378;-77
2021/10/07 11:10:27;;;;;;;19.85;13.18;;;14.10;83.90;;;;;;5006854;28;20030;-79
2021/10/07 11:12:55;;;;;;;13.60;9.25;;;14.00;84.00;;;;;;5003756;28;20045;-79
2021/10/07 11:15:24;;;;;;;25.10;14.52;;;14.10;84.10;;;;;;5009697;28;20439;-77
2021/10/07 11:17:50;;;;;;;22.20;14.82;;;14.00;84.10;;;;;;5006924;28;20037;-77
2021/10/07 11:20:22;;;;;;;21.95;13.70;;;13.90;84.40;;;;;;5007116;28;20026;-77
2021/10/07 11:23:15;;;;;;;19.95;13.25;;;13.90;84.40;;;;;;5030656;28;20018;-78
2021/10/07 11:25:49;;;;;;;23.33;14.75;;;13.90;84.50;;;;;;5010053;28;20024;-77
2021/10/07 11:28:19;;;;;;;20.88;13.10;;;14.00;84.50;;;;;;4996739;28;20480;-78
2021/10/07 11:30:46;;;;;;;15.27;10.77;;;14.00;84.40;;;;;;4996726;28;20086;-80
2021/10/07 11:33:14;;;;;;;11.30;7.75;;;14.10;84.30;;;;;;5001060;28;20022;-80
2021/10/07 11:35:40;;;;;;;12.60;8.65;;;14.10;84.20;;;;;;4998769;28;20044;-79
2021/10/07 11:38:14;;;;;;;17.25;11.68;;;14.20;84.00;;;;;;4999857;28;20038;-76
2021/10/07 11:40:44;;;;;;;15.68;10.98;;;14.20;83.90;;;;;;4999938;28;20026;-80
2021/10/07 11:43:14;;;;;;;17.95;12.13;;;14.10;83.90;;;;;;5002435;28;20475;-80
2021/10/07 11:45:42;;;;;;;16.27;10.82;;;14.10;84.10;;;;;;5002955;28;20041;-79
2021/10/07 11:48:09;;;;;;;13.70;9.70;;;14.10;84.10;;;;;;5002089;28;20095;-79
2021/10/07 11:50:44;;;;;;;16.30;11.50;;;14.10;84.00;;;;;;5011970;28;20042;-77
2021/10/07 11:53:12;;;;;;;12.20;8.75;;;14.00;83.70;;;;;;5105179;27;20037;-78
2021/10/07 11:55:43;;;;;;;14.98;10.10;;;13.90;83.90;;;;;;5041252;28;20030;-78
2021/10/07 11:58:11;;;;;;;13.07;8.98;;;14.00;84.10;;;;;;5007642;28;20124;-79
2021/10/07 12:00:42;;;;;;;15.90;10.80;;;14.00;84.20;;;;;;5058219;28;20024;-81
2021/10/07 12:03:18;;;;;;;16.13;10.40;;;14.00;84.00;;;;;;5036499;28;20113;-81
2021/10/07 12:05:46;;;;;;;16.95;12.30;;;14.00;83.80;;;;;;5005765;28;20052;-77
2021/10/07 12:08:15;;;;;;;12.73;8.80;;;14.00;83.90;;;;;;5010756;28;20483;-78
2021/10/07 12:10:44;;;;;;;42.10;32.72;;;14.00;84.10;;;;;;5006257;28;20030;-78
2021/10/07 12:13:16;;;;;;;20.85;16.60;;;14.10;84.00;;;;;;5007320;28;20033;-80
2021/10/07 12:15:48;;;;;;;14.38;10.98;;;14.30;83.80;;;;;;5011704;28;20026;-79
2021/10/07 12:18:15;;;;;;;15.73;11.63;;;14.50;83.50;;;;;;5029198;28;20034;-80
2021/10/07 12:21:04;;;;;;;18.85;13.35;;;14.50;82.90;;;;;;5010851;28;20380;-80
2021/10/07 12:23:31;;;;;;;14.48;11.05;;;14.40;82.90;;;;;;5010656;28;20482;-79
2021/10/07 12:26:02;;;;;;;13.30;10.15;;;14.50;82.90;;;;;;5009530;28;20399;-77
2021/10/07 12:28:29;;;;;;;12.10;9.38;;;14.60;82.70;;;;;;5010364;28;20067;-79
2021/10/07 12:31:01;;;;;;;15.05;12.32;;;14.70;82.40;;;;;;5009937;28;20022;-78
2021/10/07 12:33:29;;;;;;;10.55;8.48;;;14.60;82.20;;;;;;5010339;28;20030;-78
2021/10/07 12:35:58;;;;;;;13.27;9.75;;;14.60;82.30;;;;;;5010519;28;20033;-78
2021/10/07 12:38:24;;;;;;;12.65;9.60;;;14.70;82.20;;;;;;5014960;28;20361;-78
2021/10/07 12:40:59;;;;;;;10.38;8.50;;;14.70;82.10;;;;;;5009665;28;20097;-78
2021/10/07 12:43:28;;;;;;;13.60;10.80;;;14.80;82.10;;;;;;5009920;28;20030;-77
2021/10/07 12:46:05;;;;;;;16.42;12.43;;;14.70;81.80;;;;;;5009635;28;20033;-79
2021/10/07 12:48:44;;;;;;;11.70;9.48;;;14.60;81.70;;;;;;5009961;28;20155;-80
2021/10/07 12:51:11;;;;;;;9.23;7.20;;;14.50;81.90;;;;;;5003834;28;20105;-78
2021/10/07 12:53:41;;;;;;;10.40;7.68;;;14.60;82.00;;;;;;5009839;28;20030;-79